This is the latest recevied weather packets stored in our database for station/object UR7D-10. If no packets are shown the sender has not sent any weather packets the latest 10 day(s).
| Time | Temp. | Humidity | Pressure | Rain* | Wind** | Luminosity | Snow |
|---|---|---|---|---|---|---|---|
| 1777734156 | 19.44° C | 32% | 1021.1 hPa | 0 mm | - | - | - |
| 1777723347 | 18.33° C | 36% | 1022.3 hPa | 0 mm | - | - | - |
| 1777719740 | 17.78° C | 39% | 1023.2 hPa | 0 mm | - | - | - |
| 1777712533 | 16.11° C | 44% | 1024.5 hPa | 0 mm | - | - | - |
| 1777708931 | 15° C | 45% | 1024.8 hPa | 0 mm | - | - | - |
| 1777705328 | 13.33° C | 59% | 1025.1 hPa | 0 mm | - | - | - |
| 1777701724 | 8.89° C | 73% | 1024.7 hPa | 0 mm | - | - | - |
| 1777694516 | 4.44° C | 81% | 1024.3 hPa | 0 mm | - | - | - |
| 1777669294 | 11.67° C | 52% | 1024.7 hPa | 0 mm | - | - | - |
| 1777665689 | 11.67° C | 51% | 1024.7 hPa | 0 mm | - | - | - |
| 1777658484 | 13.89° C | 45% | 1024.1 hPa | 0 mm | - | - | - |
| 1777647672 | 15.56° C | 37% | 1024.4 hPa | 0 mm | - | - | - |
| 1777644069 | 17.22° C | 32% | 1024.6 hPa | 0 mm | - | - | - |
| 1777629655 | 12.78° C | 35% | 1027 hPa | 0 mm | - | - | - |
| 1777622447 | 11.11° C | 38% | 1027.4 hPa | 0 mm | - | - | - |
| 1777618844 | 10° C | 46% | 1027.8 hPa | 0 mm | - | - | - |
| 1777600830 | 4.44° C | 53% | 1027.2 hPa | 0 mm | - | - | - |
| 1777582811 | 6.67° C | 45% | 1027.1 hPa | 0 mm | - | - | - |
| 1777543173 | 12.22° C | 31% | 1026.5 hPa | 0 mm | - | - | - |
| 1777539569 | 11.11° C | 33% | 1026.7 hPa | 0 mm | - | - | - |
| 1777532363 | 9.44° C | 43% | 1027.1 hPa | 0 mm | - | - | - |
| 1777528759 | 7.22° C | 45% | 1026.9 hPa | 0 mm | - | - | - |
| 1777525154 | 6.11° C | 46% | 1026.7 hPa | 0 mm | - | - | - |
| 1777521553 | 5° C | 49% | 1026.1 hPa | 0 mm | - | - | - |
| 1777517949 | 3.33° C | 53% | 1026 hPa | 0 mm | - | - | - |
* Rain latest hour (hover to see other rain measurements)
** Current wind speed in m/s (hover to see current wind gust speed)